Gujranwala Weather



Gujranwala's Current Weather

Temprature 42o scattered clouds

scattered clouds

Rain: 0 %

Min Temprature42o
Max Temprature42o
Humidity12
Wind Speed5.1 m/h
Sun Rise04:58:22
Sun Set19:13:23
Current Time: 26-Jun-2019 15:45:29
Lat/Lon: 32.15, 74.19




Gujranwala's Geo Location



Gujranwala's Weather Forecast

Time Overall Temp Min Temp Max Temp Humidity Wind Speed Rain
26-Jun-2019 (Wed)
17:00:00 clear sky 42.540 42.540 43.550 10 3.72 m/h 0 %
20:00:00 clear sky 38.590 38.590 39.347 18 4.9 m/h 0 %
23:00:00 clear sky 36.540 36.540 37.040 22 2.47 m/h 0 %
27-Jun-2019 (Thu)
02:00:00 clear sky 35.430 35.430 35.679 18 1.4 m/h 0 %
05:00:00 clear sky 33.565 33.565 33.565 21 2.28 m/h 0 %
08:00:00 clear sky 38.350 38.350 38.350 16 1.88 m/h 0 %
11:00:00 few clouds 43.274 43.274 43.274 11 1.89 m/h 0 %
14:00:00 broken clouds 44.950 44.950 44.950 9 3.57 m/h 0 %
17:00:00 scattered clouds 45.180 45.180 45.180 9 4.03 m/h 0 %
20:00:00 clear sky 39.394 39.394 39.394 16 1.27 m/h 0 %
23:00:00 clear sky 37.135 37.135 37.135 23 5.73 m/h 0 %
28-Jun-2019 (Fri)
02:00:00 clear sky 35.928 35.928 35.928 22 4.22 m/h 0 %
05:00:00 clear sky 34.428 34.428 34.428 27 3.97 m/h 0 %
08:00:00 clear sky 39.709 39.709 39.709 20 5.36 m/h 0 %
11:00:00 clear sky 43.925 43.925 43.925 15 3.98 m/h 0 %
14:00:00 scattered clouds 46.431 46.431 46.431 10 4.43 m/h 0 %
17:00:00 scattered clouds 41.050 41.050 41.050 17 9.21 m/h 0 %
20:00:00 light rain 40.350 40.350 40.350 15 1.06 m/h 50 %
23:00:00 light rain 37.572 37.572 37.572 20 3.68 m/h 6 %
29-Jun-2019 (Sat)
02:00:00 clear sky 36.072 36.072 36.072 25 3.43 m/h 0 %
05:00:00 clear sky 34.239 34.239 34.239 29 2.66 m/h 0 %
08:00:00 clear sky 39.607 39.607 39.607 22 4.63 m/h 0 %
11:00:00 clear sky 44.050 44.050 44.050 17 4.57 m/h 0 %
14:00:00 clear sky 47.150 47.150 47.150 11 4.9 m/h 0 %
17:00:00 clear sky 46.891 46.891 46.891 10 4.11 m/h 0 %
20:00:00 scattered clouds 41.750 41.750 41.750 15 1.23 m/h 0 %
23:00:00 scattered clouds 40.150 40.150 40.150 16 3.64 m/h 0 %
30-Jun-2019 (Sun)
02:00:00 clear sky 37.636 37.636 37.636 19 3.85 m/h 0 %
05:00:00 clear sky 35.532 35.532 35.532 22 2.53 m/h 0 %
08:00:00 clear sky 39.832 39.832 39.832 21 4.57 m/h 0 %
11:00:00 clear sky 44.318 44.318 44.318 15 4.28 m/h 0 %
14:00:00 clear sky 47.109 47.109 47.109 12 3.88 m/h 0 %
17:00:00 scattered clouds 46.750 46.750 46.750 11 3.58 m/h 0 %
20:00:00 light rain 41.750 41.750 41.750 13 1.11 m/h 13 %
23:00:00 light rain 39.550 39.550 39.550 18 1.23 m/h 38 %
01-Jul-2019 (Mon)
02:00:00 scattered clouds 38.050 38.050 38.050 21 4.03 m/h 0 %
05:00:00 few clouds 35.035 35.035 35.035 26 1.07 m/h 0 %
08:00:00 clear sky 39.350 39.350 39.350 21 2.86 m/h 0 %
11:00:00 clear sky 43.850 43.850 43.850 20 3.82 m/h 0 %
14:00:00 clear sky 47.850 47.850 47.850 13 4.8 m/h 0 %

Famous Cities (60)